Time;durP1;ratioP1;P1;durP2;ratioP2;P2;SDS_P1;SDS_P2;PMS_P1;PMS_P2;Temp;Humidity;BMP_temperature;BMP_pressure;BME280_temperature;BME280_humidity;BME280_pressure;Samples;Min_cycle;Max_cycle;Signal;HPM_P1;HPM_P2
2022/12/10 00:00:12;;;;;;;101.90;28.92;;;;;;;;;;5246500;22;20037;-85
2022/12/10 00:02:38;;;;;;;91.65;27.38;;;;;;;;;;5012884;28;20041;-87
2022/12/10 00:05:04;;;;;;;88.32;24.92;;;;;;;;;;5050253;28;20042;-83
2022/12/10 00:07:30;;;;;;;83.20;27.52;;;;;;;;;;5015016;28;20057;-82
2022/12/10 00:09:56;;;;;;;88.95;26.35;;;;;;;;;;5038307;28;20140;-81
2022/12/10 00:12:22;;;;;;;84.93;26.77;;;;;;;;;;5005097;28;20247;-82
2022/12/10 00:14:48;;;;;;;88.53;24.92;;;;;;;;;;5040266;28;20055;-81
2022/12/10 00:17:14;;;;;;;82.80;30.02;;;;;;;;;;5009042;28;20453;-80
2022/12/10 00:19:40;;;;;;;76.63;26.40;;;;;;;;;;5008456;28;20548;-79
2022/12/10 00:22:06;;;;;;;75.43;23.80;;;;;;;;;;5028273;28;20509;-78
2022/12/10 00:24:35;;;;;;;71.05;24.15;;;;;;;;;;5009883;28;20049;-78
2022/12/10 00:27:01;;;;;;;72.20;27.80;;;;;;;;;;4965802;28;20054;-78
2022/12/10 00:29:27;;;;;;;63.08;26.15;;;;;;;;;;4996181;28;20104;-78
2022/12/10 00:31:53;;;;;;;80.93;25.55;;;;;;;;;;4969951;28;20049;-79
2022/12/10 00:34:19;;;;;;;82.30;28.98;;;;;;;;;;5008792;28;20054;-80
2022/12/10 00:36:46;;;;;;;91.47;31.75;;;;;;;;;;4990297;28;20046;-79
2022/12/10 00:39:13;;;;;;;81.60;27.77;;;;;;;;;;4989316;28;20073;-79
2022/12/10 00:41:39;;;;;;;81.13;26.67;;;;;;;;;;4973069;28;20045;-79
2022/12/10 00:44:05;;;;;;;71.00;25.35;;;;;;;;;;4990980;28;20042;-79
2022/12/10 00:46:31;;;;;;;75.95;23.75;;;;;;;;;;4994545;28;20085;-79
2022/12/10 00:48:57;;;;;;;66.82;23.65;;;;;;;;;;4971219;28;20070;-80
2022/12/10 00:51:24;;;;;;;62.83;25.25;;;;;;;;;;4964175;28;20053;-80
2022/12/10 00:53:50;;;;;;;57.72;22.15;;;;;;;;;;4990445;28;20144;-78
2022/12/10 00:56:17;;;;;;;63.05;23.20;;;;;;;;;;5005432;28;20133;-80
2022/12/10 00:58:43;;;;;;;72.03;23.60;;;;;;;;;;4978507;28;20036;-80
2022/12/10 01:01:09;;;;;;;58.08;25.77;;;;;;;;;;4985645;28;20050;-79
2022/12/10 01:03:36;;;;;;;68.82;27.30;;;;;;;;;;4975933;28;20058;-80
2022/12/10 01:06:15;;;;;;;65.63;23.60;;;;;;;;;;4993286;28;20069;-79
2022/12/10 01:08:42;;;;;;;60.25;22.52;;;;;;;;;;4992958;28;20042;-80
2022/12/10 01:11:08;;;;;;;58.08;21.52;;;;;;;;;;4960375;28;20037;-79
2022/12/10 01:13:34;;;;;;;54.58;20.10;;;;;;;;;;4975804;28;20054;-79
2022/12/10 01:16:01;;;;;;;54.67;21.92;;;;;;;;;;4995209;28;20115;-81
2022/12/10 01:18:27;;;;;;;46.55;17.67;;;;;;;;;;5014976;28;20045;-81
2022/12/10 01:20:53;;;;;;;52.25;20.88;;;;;;;;;;5009545;28;20057;-81
2022/12/10 01:23:19;;;;;;;52.08;21.60;;;;;;;;;;5000756;28;20053;-81
2022/12/10 01:25:46;;;;;;;39.85;16.83;;;;;;;;;;5006929;28;20077;-82
2022/12/10 01:28:12;;;;;;;37.67;17.80;;;;;;;;;;5021201;28;20069;-81
2022/12/10 01:30:38;;;;;;;60.25;23.10;;;;;;;;;;5021497;28;20060;-81
2022/12/10 01:33:04;;;;;;;49.47;20.80;;;;;;;;;;5038495;28;20053;-81
2022/12/10 01:35:35;;;;;;;63.55;24.27;;;;;;;;;;5019093;28;20605;-81
2022/12/10 01:38:01;;;;;;;72.43;30.25;;;;;;;;;;4999447;28;20040;-81
2022/12/10 01:40:27;;;;;;;56.70;24.23;;;;;;;;;;5001667;28;20076;-81
2022/12/10 01:42:53;;;;;;;51.22;19.77;;;;;;;;;;5006696;28;20046;-81
2022/12/10 01:45:19;;;;;;;51.50;19.65;;;;;;;;;;5001831;28;20038;-81
2022/12/10 01:47:45;;;;;;;42.28;19.40;;;;;;;;;;5016937;28;20046;-81
2022/12/10 01:50:11;;;;;;;64.30;21.05;;;;;;;;;;5023482;28;20571;-81
2022/12/10 01:52:38;;;;;;;69.47;19.92;;;;;;;;;;4992511;28;20050;-80
2022/12/10 01:55:06;;;;;;;68.55;24.42;;;;;;;;;;4978684;28;20073;-80
2022/12/10 01:57:33;;;;;;;68.70;24.25;;;;;;;;;;5012842;28;20052;-80
2022/12/10 02:00:01;;;;;;;75.93;24.23;;;;;;;;;;5000970;28;20054;-80
2022/12/10 02:02:36;;;;;;;59.58;19.85;;;;;;;;;;4991811;28;20046;-80
2022/12/10 02:05:41;;;;;;;80.97;25.73;;;;;;;;;;5011688;28;20083;-81
2022/12/10 02:08:15;;;;;;;69.88;21.55;;;;;;;;;;4904319;29;20071;-80
2022/12/10 02:11:00;;;;;;;70.00;24.45;;;;;;;;;;4916989;29;20543;-81
2022/12/10 02:13:39;;;;;;;73.18;23.00;;;;;;;;;;4969240;28;20116;-80
2022/12/10 02:16:14;;;;;;;63.35;21.52;;;;;;;;;;4996783;28;20031;-78
2022/12/10 02:18:49;;;;;;;70.22;21.52;;;;;;;;;;4994492;28;20078;-79
2022/12/10 02:21:19;;;;;;;73.60;20.23;;;;;;;;;;4980136;28;20046;-82
2022/12/10 02:23:47;;;;;;;57.47;21.15;;;;;;;;;;4998621;28;20557;-81
2022/12/10 02:26:24;;;;;;;79.00;23.55;;;;;;;;;;4985752;28;20033;-82
2022/12/10 02:29:09;;;;;;;76.25;22.15;;;;;;;;;;5002331;28;20104;-82
2022/12/10 02:31:35;;;;;;;54.53;19.48;;;;;;;;;;4998294;28;20045;-82
2022/12/10 02:34:02;;;;;;;64.22;19.75;;;;;;;;;;5011253;28;20053;-82
2022/12/10 02:36:29;;;;;;;35.70;14.63;;;;;;;;;;5008115;28;20042;-82
2022/12/10 02:38:55;;;;;;;61.72;20.98;;;;;;;;;;4949466;28;20046;-79
2022/12/10 02:41:22;;;;;;;53.13;17.90;;;;;;;;;;4985461;28;20030;-80
2022/12/10 02:43:49;;;;;;;47.55;15.63;;;;;;;;;;4957945;28;20108;-80
2022/12/10 02:46:15;;;;;;;40.58;15.93;;;;;;;;;;4974275;28;20120;-80
2022/12/10 02:48:42;;;;;;;53.95;18.92;;;;;;;;;;4974561;28;20049;-79
2022/12/10 02:51:07;;;;;;;57.15;20.23;;;;;;;;;;4984590;28;20430;-80
2022/12/10 02:53:40;;;;;;;55.72;19.88;;;;;;;;;;4976996;28;20534;-80
2022/12/10 02:56:35;;;;;;;89.13;26.20;;;;;;;;;;4978101;28;20044;-79
2022/12/10 02:59:05;;;;;;;62.97;21.27;;;;;;;;;;4942459;28;20054;-80
2022/12/10 03:01:34;;;;;;;71.55;20.80;;;;;;;;;;5003201;28;20050;-80
2022/12/10 03:04:01;;;;;;;84.25;26.55;;;;;;;;;;4992244;28;20112;-79
2022/12/10 03:06:36;;;;;;;75.50;22.40;;;;;;;;;;4965024;28;20426;-79
2022/12/10 03:09:04;;;;;;;72.65;23.13;;;;;;;;;;4992505;28;20050;-80
2022/12/10 03:11:30;;;;;;;68.85;21.67;;;;;;;;;;5009511;28;20167;-78
2022/12/10 03:13:59;;;;;;;79.40;25.35;;;;;;;;;;4992622;28;20137;-79
2022/12/10 03:16:25;;;;;;;68.22;20.15;;;;;;;;;;4991858;28;20179;-78
2022/12/10 03:18:53;;;;;;;70.32;21.85;;;;;;;;;;4991703;28;20050;-77
2022/12/10 03:21:19;;;;;;;52.00;19.45;;;;;;;;;;5009092;28;20077;-78
2022/12/10 03:23:46;;;;;;;62.80;19.83;;;;;;;;;;4991554;28;20206;-78
2022/12/10 03:26:12;;;;;;;48.90;16.50;;;;;;;;;;5004555;28;20068;-78
2022/12/10 03:28:39;;;;;;;67.65;20.33;;;;;;;;;;4972601;28;20065;-78
2022/12/10 03:31:06;;;;;;;61.83;19.67;;;;;;;;;;4993378;28;20510;-80
2022/12/10 03:33:32;;;;;;;73.22;22.58;;;;;;;;;;5008322;28;20107;-78
2022/12/10 03:35:58;;;;;;;56.83;19.33;;;;;;;;;;4989467;28;20069;-78
2022/12/10 03:38:24;;;;;;;71.00;19.55;;;;;;;;;;4956564;28;20050;-78
2022/12/10 03:40:51;;;;;;;65.63;20.52;;;;;;;;;;4989584;28;20049;-78
2022/12/10 03:43:17;;;;;;;52.15;16.25;;;;;;;;;;4983686;28;20403;-79
2022/12/10 03:45:43;;;;;;;69.57;21.85;;;;;;;;;;4975340;28;20088;-79
2022/12/10 03:48:09;;;;;;;54.78;18.02;;;;;;;;;;4956955;28;20050;-79
2022/12/10 03:50:35;;;;;;;56.78;18.45;;;;;;;;;;4983306;28;20051;-78
2022/12/10 03:53:01;;;;;;;70.13;20.58;;;;;;;;;;4975425;28;20101;-78
2022/12/10 03:55:27;;;;;;;73.28;22.42;;;;;;;;;;4973216;28;20049;-79
2022/12/10 03:57:52;;;;;;;59.75;19.27;;;;;;;;;;4988643;28;20050;-78
2022/12/10 04:00:18;;;;;;;43.55;15.88;;;;;;;;;;4991502;28;20163;-78
2022/12/10 04:02:44;;;;;;;25.02;9.10;;;;;;;;;;5007931;28;20084;-78
2022/12/10 04:05:10;;;;;;;71.72;20.70;;;;;;;;;;5010761;28;20137;-77
2022/12/10 04:07:36;;;;;;;63.05;21.70;;;;;;;;;;4989830;28;20050;-78
2022/12/10 04:10:03;;;;;;;72.18;23.58;;;;;;;;;;5021353;28;20049;-79
2022/12/10 04:12:29;;;;;;;96.18;28.20;;;;;;;;;;4988429;28;20042;-79
2022/12/10 04:17:39;;;;;;;61.92;22.00;;;;;;;;;;4999331;28;20038;-77
2022/12/10 04:26:51;;;;;;;86.55;23.38;;;;;;;;;;4989494;28;20518;-77
2022/12/10 04:28:21;;;;;;;84.07;24.45;;;;;;;;;;5008283;28;20049;-77
2022/12/10 04:30:47;;;;;;;66.20;18.13;;;;;;;;;;4990691;28;20061;-78
2022/12/10 04:33:13;;;;;;;73.20;19.85;;;;;;;;;;4990568;28;20054;-78
2022/12/10 04:35:40;;;;;;;50.67;18.17;;;;;;;;;;5007246;28;20046;-78
2022/12/10 04:38:06;;;;;;;57.45;19.13;;;;;;;;;;5008158;28;20550;-79
2022/12/10 04:40:32;;;;;;;59.47;22.13;;;;;;;;;;4998296;28;20064;-78
2022/12/10 04:42:58;;;;;;;70.53;23.55;;;;;;;;;;5007939;28;20046;-79
2022/12/10 04:45:24;;;;;;;76.13;23.83;;;;;;;;;;5007252;28;20056;-80
2022/12/10 04:47:50;;;;;;;78.47;22.65;;;;;;;;;;4992767;28;20510;-79
2022/12/10 04:50:16;;;;;;;79.38;25.33;;;;;;;;;;4988923;28;20046;-79
2022/12/10 04:52:42;;;;;;;72.78;23.48;;;;;;;;;;4993636;28;20040;-80
2022/12/10 04:55:08;;;;;;;62.63;22.95;;;;;;;;;;5008468;28;20046;-79
2022/12/10 04:57:34;;;;;;;86.50;24.63;;;;;;;;;;4989829;28;20038;-79
2022/12/10 05:00:00;;;;;;;65.45;22.35;;;;;;;;;;4973918;28;20089;-79
2022/12/10 05:02:26;;;;;;;75.00;25.48;;;;;;;;;;4996893;28;20458;-79
2022/12/10 05:04:52;;;;;;;59.75;19.30;;;;;;;;;;4971219;28;20042;-79
2022/12/10 05:07:18;;;;;;;59.35;21.55;;;;;;;;;;4988530;28;20050;-79
2022/12/10 05:09:44;;;;;;;70.80;23.27;;;;;;;;;;4970680;28;20042;-79
2022/12/10 05:12:10;;;;;;;75.70;25.13;;;;;;;;;;4955180;28;20088;-79
2022/12/10 05:14:36;;;;;;;65.28;23.00;;;;;;;;;;4971190;28;20058;-78
2022/12/10 05:17:02;;;;;;;71.43;22.35;;;;;;;;;;4988370;28;20050;-79
2022/12/10 05:19:28;;;;;;;74.38;22.60;;;;;;;;;;5008432;28;20052;-79
2022/12/10 05:24:39;;;;;;;58.45;21.02;;;;;;;;;;4988847;28;20069;-78
2022/12/10 05:27:05;;;;;;;71.00;26.38;;;;;;;;;;4954763;28;20038;-79
2022/12/10 05:29:31;;;;;;;77.22;22.95;;;;;;;;;;4970825;28;20426;-79
2022/12/10 05:31:57;;;;;;;65.60;22.55;;;;;;;;;;4980913;28;20510;-78
2022/12/10 05:34:23;;;;;;;79.25;23.70;;;;;;;;;;5007800;28;20172;-78
2022/12/10 05:36:53;;;;;;;71.53;22.30;;;;;;;;;;4991054;28;20038;-79
2022/12/10 05:39:19;;;;;;;105.07;30.23;;;;;;;;;;4979713;28;20038;-80
2022/12/10 05:41:45;;;;;;;93.47;26.00;;;;;;;;;;4981532;28;20046;-80
2022/12/10 05:44:11;;;;;;;87.82;26.35;;;;;;;;;;5012247;28;20062;-80
2022/12/10 05:46:37;;;;;;;90.47;25.42;;;;;;;;;;5010799;28;20049;-80
2022/12/10 05:49:03;;;;;;;87.43;24.88;;;;;;;;;;5010761;28;20092;-81
2022/12/10 05:51:30;;;;;;;73.85;22.73;;;;;;;;;;5020302;28;20053;-80
2022/12/10 05:53:57;;;;;;;64.45;22.08;;;;;;;;;;4960842;28;20046;-81
2022/12/10 05:56:23;;;;;;;74.07;24.05;;;;;;;;;;4975573;28;20050;-81
2022/12/10 05:58:49;;;;;;;78.20;24.50;;;;;;;;;;4999426;28;20065;-83
2022/12/10 06:01:16;;;;;;;108.65;30.15;;;;;;;;;;5030432;28;20076;-82
2022/12/10 06:03:43;;;;;;;85.30;26.13;;;;;;;;;;5035844;28;20029;-83
2022/12/10 06:06:09;;;;;;;80.40;23.80;;;;;;;;;;4996438;28;20069;-85
2022/12/10 06:08:35;;;;;;;103.93;28.73;;;;;;;;;;5017532;28;20030;-85
2022/12/10 06:11:02;;;;;;;77.95;22.52;;;;;;;;;;5022681;28;20053;-86
2022/12/10 06:13:28;;;;;;;80.13;26.02;;;;;;;;;;5034601;28;20050;-86
2022/12/10 06:15:54;;;;;;;73.85;23.42;;;;;;;;;;5038394;28;20049;-85
2022/12/10 06:18:20;;;;;;;94.28;25.40;;;;;;;;;;5037616;28;20033;-85
2022/12/10 06:20:46;;;;;;;80.43;24.08;;;;;;;;;;5100567;22;20104;-87
2022/12/10 06:23:12;;;;;;;111.80;26.27;;;;;;;;;;5021415;28;20052;-86
2022/12/10 06:25:38;;;;;;;80.95;24.70;;;;;;;;;;5037958;28;20096;-87
2022/12/10 06:28:05;;;;;;;92.18;23.50;;;;;;;;;;5053829;28;20045;-84
2022/12/10 06:30:30;;;;;;;85.18;23.15;;;;;;;;;;5054511;28;20037;-83
2022/12/10 06:32:57;;;;;;;86.65;23.40;;;;;;;;;;5053624;28;20057;-85
2022/12/10 06:35:23;;;;;;;100.45;25.38;;;;;;;;;;5031085;28;20033;-84
2022/12/10 06:37:49;;;;;;;75.97;24.55;;;;;;;;;;5031006;28;20041;-83
2022/12/10 06:40:16;;;;;;;79.40;23.98;;;;;;;;;;5043968;28;20037;-80
2022/12/10 06:42:42;;;;;;;115.28;32.17;;;;;;;;;;5036134;28;20133;-80
2022/12/10 06:45:09;;;;;;;96.55;23.85;;;;;;;;;;5030764;28;20088;-80
2022/12/10 06:47:35;;;;;;;75.65;22.80;;;;;;;;;;5011869;28;20092;-80
2022/12/10 06:50:03;;;;;;;80.28;22.92;;;;;;;;;;5012058;28;20046;-81
2022/12/10 06:52:29;;;;;;;84.38;25.13;;;;;;;;;;5013570;28;20040;-80
2022/12/10 06:54:56;;;;;;;68.68;22.80;;;;;;;;;;5018448;28;20049;-81
2022/12/10 06:57:22;;;;;;;96.32;27.10;;;;;;;;;;5033789;28;20033;-81
2022/12/10 06:59:48;;;;;;;96.22;29.58;;;;;;;;;;5015908;28;20064;-82
2022/12/10 07:02:14;;;;;;;96.30;28.33;;;;;;;;;;5024120;28;20041;-83
2022/12/10 07:04:40;;;;;;;72.15;24.75;;;;;;;;;;5018309;28;20037;-83
2022/12/10 07:07:06;;;;;;;97.03;27.00;;;;;;;;;;5054051;28;20034;-83
2022/12/10 07:09:32;;;;;;;104.18;33.45;;;;;;;;;;5019325;28;20076;-83
2022/12/10 07:11:58;;;;;;;119.22;35.30;;;;;;;;;;5035529;28;20041;-83
2022/12/10 07:14:24;;;;;;;89.97;26.65;;;;;;;;;;5015438;28;20042;-82
2022/12/10 07:16:50;;;;;;;104.15;26.38;;;;;;;;;;5034865;28;20069;-83
2022/12/10 07:19:16;;;;;;;95.03;26.05;;;;;;;;;;5056330;28;20030;-84
2022/12/10 07:21:43;;;;;;;92.75;26.25;;;;;;;;;;5039620;28;20044;-85
2022/12/10 07:24:10;;;;;;;71.57;23.15;;;;;;;;;;5040169;28;20048;-84
2022/12/10 07:26:37;;;;;;;86.45;24.88;;;;;;;;;;5038914;28;20049;-83
2022/12/10 07:29:04;;;;;;;80.68;25.08;;;;;;;;;;5056100;28;20104;-83
2022/12/10 07:31:29;;;;;;;98.03;28.02;;;;;;;;;;5033343;28;20152;-80
2022/12/10 07:33:56;;;;;;;120.60;33.20;;;;;;;;;;5016567;28;20061;-81
2022/12/10 07:36:22;;;;;;;82.43;24.52;;;;;;;;;;5016717;28;20048;-80
2022/12/10 07:38:49;;;;;;;114.80;25.73;;;;;;;;;;5006409;28;20041;-82
2022/12/10 07:41:15;;;;;;;108.45;25.95;;;;;;;;;;5033343;28;20545;-79
2022/12/10 07:43:42;;;;;;;90.53;25.27;;;;;;;;;;5012042;28;20038;-79
2022/12/10 07:46:12;;;;;;;96.95;29.23;;;;;;;;;;5030350;28;20075;-79
2022/12/10 07:48:38;;;;;;;80.13;22.07;;;;;;;;;;5012629;28;20064;-80
2022/12/10 07:51:04;;;;;;;89.13;23.83;;;;;;;;;;4980257;28;20068;-79
2022/12/10 07:53:31;;;;;;;86.47;23.50;;;;;;;;;;5030605;28;20061;-80
2022/12/10 07:55:57;;;;;;;89.80;22.33;;;;;;;;;;5030324;28;20038;-80
2022/12/10 07:58:23;;;;;;;107.50;25.38;;;;;;;;;;5012658;28;20038;-80
2022/12/10 08:00:50;;;;;;;94.63;27.25;;;;;;;;;;5012351;28;20460;-79
2022/12/10 08:03:15;;;;;;;91.70;23.10;;;;;;;;;;5011656;28;20647;-81
2022/12/10 08:05:41;;;;;;;86.90;22.92;;;;;;;;;;5013286;28;20037;-80
2022/12/10 08:08:08;;;;;;;110.32;25.13;;;;;;;;;;5012601;28;20232;-81
2022/12/10 08:10:34;;;;;;;110.18;25.48;;;;;;;;;;4996248;28;20042;-80
2022/12/10 08:13:00;;;;;;;104.20;27.10;;;;;;;;;;5012245;28;20054;-79
2022/12/10 08:15:28;;;;;;;93.82;25.20;;;;;;;;;;5031350;28;20037;-80
2022/12/10 08:17:54;;;;;;;97.25;25.52;;;;;;;;;;5030661;28;20041;-79
2022/12/10 08:20:20;;;;;;;115.95;27.42;;;;;;;;;;5030274;28;20037;-79
2022/12/10 08:22:46;;;;;;;112.63;29.67;;;;;;;;;;4996128;28;20430;-80
2022/12/10 08:25:12;;;;;;;124.68;29.65;;;;;;;;;;5032328;28;20436;-81
2022/12/10 08:27:38;;;;;;;99.30;25.42;;;;;;;;;;5033444;28;20034;-81
2022/12/10 08:30:05;;;;;;;126.75;29.85;;;;;;;;;;5033445;28;20041;-81
2022/12/10 08:32:31;;;;;;;113.85;30.65;;;;;;;;;;5032477;28;20122;-81
2022/12/10 08:34:57;;;;;;;124.57;28.48;;;;;;;;;;5032605;28;20077;-81
2022/12/10 08:37:23;;;;;;;115.82;29.80;;;;;;;;;;5027528;28;20075;-76
2022/12/10 08:39:49;;;;;;;172.00;38.88;;;;;;;;;;5005290;28;20045;-77
2022/12/10 08:42:15;;;;;;;148.98;36.10;;;;;;;;;;5027164;28;20425;-76
2022/12/10 08:44:41;;;;;;;179.43;37.13;;;;;;;;;;5021327;28;20514;-75
2022/12/10 08:47:08;;;;;;;138.65;30.50;;;;;;;;;;5026700;28;20037;-77
2022/12/10 08:49:34;;;;;;;145.45;30.02;;;;;;;;;;5027051;28;20037;-74
2022/12/10 08:51:59;;;;;;;193.45;35.05;;;;;;;;;;5009004;28;20167;-78
2022/12/10 08:54:25;;;;;;;184.20;33.28;;;;;;;;;;5009616;28;20570;-78
2022/12/10 08:56:51;;;;;;;163.43;29.88;;;;;;;;;;5001591;28;20080;-77
2022/12/10 08:59:17;;;;;;;162.35;29.42;;;;;;;;;;5006691;28;20517;-77
2022/12/10 09:01:43;;;;;;;148.50;31.88;;;;;;;;;;5007583;28;20133;-76
2022/12/10 09:04:09;;;;;;;206.77;29.63;;;;;;;;;;4989757;28;20541;-75
2022/12/10 09:06:35;;;;;;;166.93;28.95;;;;;;;;;;5006139;28;20053;-77
2022/12/10 09:09:01;;;;;;;183.13;30.27;;;;;;;;;;4999332;28;20064;-78
2022/12/10 09:11:28;;;;;;;172.90;30.85;;;;;;;;;;5010563;28;20509;-77
2022/12/10 09:13:54;;;;;;;172.00;29.15;;;;;;;;;;5026743;28;20057;-75
2022/12/10 09:16:21;;;;;;;180.00;29.83;;;;;;;;;;5013090;28;20045;-76
2022/12/10 09:18:47;;;;;;;180.27;29.98;;;;;;;;;;5010496;28;20575;-77
2022/12/10 09:21:14;;;;;;;229.95;32.13;;;;;;;;;;4995837;28;20057;-76
2022/12/10 09:23:40;;;;;;;187.70;33.65;;;;;;;;;;5012729;28;20124;-75
2022/12/10 09:26:07;;;;;;;168.85;32.35;;;;;;;;;;5030527;28;20049;-76
2022/12/10 09:28:33;;;;;;;184.25;29.50;;;;;;;;;;4996565;28;20042;-77
2022/12/10 09:30:59;;;;;;;236.45;37.20;;;;;;;;;;5012976;28;20033;-75
2022/12/10 09:33:25;;;;;;;173.50;31.60;;;;;;;;;;5027289;28;20132;-77
2022/12/10 09:35:51;;;;;;;215.52;33.38;;;;;;;;;;5013184;28;20045;-77
2022/12/10 09:38:17;;;;;;;185.20;28.65;;;;;;;;;;5019074;28;20048;-77
2022/12/10 09:40:46;;;;;;;184.80;33.35;;;;;;;;;;5031353;28;20044;-76
2022/12/10 09:43:14;;;;;;;189.73;31.92;;;;;;;;;;5030588;28;20205;-76
2022/12/10 09:45:46;;;;;;;155.98;31.50;;;;;;;;;;5012464;28;20060;-74
2022/12/10 09:48:28;;;;;;;206.00;32.55;;;;;;;;;;5011881;28;20511;-75
2022/12/10 09:50:57;;;;;;;245.80;40.08;;;;;;;;;;4996057;28;20041;-75
2022/12/10 09:53:23;;;;;;;185.18;31.20;;;;;;;;;;5011888;28;20049;-75
2022/12/10 09:55:49;;;;;;;178.55;30.75;;;;;;;;;;5012684;28;20551;-75
2022/12/10 09:58:19;;;;;;;169.45;32.03;;;;;;;;;;5011392;28;20053;-73
2022/12/10 10:00:46;;;;;;;225.73;34.78;;;;;;;;;;4994906;28;20047;-75
2022/12/10 10:03:13;;;;;;;222.32;30.98;;;;;;;;;;5011454;28;20033;-77
2022/12/10 10:05:49;;;;;;;322.88;34.63;;;;;;;;;;5035423;28;20060;-76
2022/12/10 10:08:17;;;;;;;343.48;42.33;;;;;;;;;;5020898;28;20030;-75
2022/12/10 10:10:43;;;;;;;242.55;34.03;;;;;;;;;;5023757;28;20049;-75
2022/12/10 10:13:30;;;;;;;187.52;32.50;;;;;;;;;;5022356;28;20582;-73
2022/12/10 10:15:56;;;;;;;211.98;34.38;;;;;;;;;;4997065;28;20040;-74
2022/12/10 10:18:34;;;;;;;253.45;36.28;;;;;;;;;;5029959;28;20033;-74
2022/12/10 10:21:01;;;;;;;245.48;33.55;;;;;;;;;;5026154;28;20513;-72
2022/12/10 10:23:27;;;;;;;249.88;33.85;;;;;;;;;;5026952;28;20049;-75
2022/12/10 10:25:52;;;;;;;267.08;36.08;;;;;;;;;;5020691;28;20073;-74
2022/12/10 10:28:19;;;;;;;383.52;44.97;;;;;;;;;;5011391;28;20533;-76
2022/12/10 10:30:45;;;;;;;210.85;34.63;;;;;;;;;;5025577;28;20041;-76
2022/12/10 10:33:12;;;;;;;231.82;35.53;;;;;;;;;;5027942;28;20045;-76
2022/12/10 10:35:42;;;;;;;313.13;33.80;;;;;;;;;;5011308;28;20053;-76
2022/12/10 10:38:13;;;;;;;290.05;36.45;;;;;;;;;;5010062;28;20047;-76
2022/12/10 10:40:39;;;;;;;;;;;;;;;;;;5007397;28;20065;-74
2022/12/10 10:43:05;;;;;;;255.82;34.45;;;;;;;;;;5028066;28;19952;-75
2022/12/10 10:45:32;;;;;;;546.75;48.65;;;;;;;;;;4979766;28;20037;-75
2022/12/10 10:48:12;;;;;;;402.77;41.97;;;;;;;;;;5025649;28;20044;-76
2022/12/10 10:50:39;;;;;;;254.27;33.50;;;;;;;;;;5027169;28;20196;-75
2022/12/10 10:53:20;;;;;;;416.45;39.95;;;;;;;;;;5026063;28;20417;-76
2022/12/10 10:55:46;;;;;;;;;;;;;;;;;;5027268;28;20045;-77
2022/12/10 10:58:19;;;;;;;222.68;30.20;;;;;;;;;;5025066;28;20339;-75
2022/12/10 11:01:04;;;;;;;303.63;37.17;;;;;;;;;;5023824;28;20516;-76
2022/12/10 11:03:30;;;;;;;337.83;46.40;;;;;;;;;;5026578;28;20670;-75
2022/12/10 11:05:57;;;;;;;264.73;36.97;;;;;;;;;;5006015;28;20124;-75
2022/12/10 11:08:24;;;;;;;342.92;34.60;;;;;;;;;;5024816;28;20028;-75
2022/12/10 11:10:51;;;;;;;297.48;34.75;;;;;;;;;;5009614;28;20141;-76
2022/12/10 11:13:26;;;;;;;311.73;33.55;;;;;;;;;;5009269;28;20053;-76
2022/12/10 11:16:00;;;;;;;197.98;29.80;;;;;;;;;;5010680;28;20071;-75
2022/12/10 11:18:33;;;;;;;235.05;31.85;;;;;;;;;;5026034;28;20125;-76
2022/12/10 11:21:03;;;;;;;200.18;27.45;;;;;;;;;;5027661;28;20056;-76
2022/12/10 11:23:31;;;;;;;297.17;42.13;;;;;;;;;;4994178;28;20132;-76
2022/12/10 11:26:15;;;;;;;196.57;32.35;;;;;;;;;;5010038;28;20033;-76
2022/12/10 11:28:51;;;;;;;158.20;31.35;;;;;;;;;;5027781;28;20044;-76
2022/12/10 11:31:23;;;;;;;141.00;31.15;;;;;;;;;;5027718;28;20041;-76
2022/12/10 11:33:52;;;;;;;135.15;27.13;;;;;;;;;;5025528;28;20159;-76
2022/12/10 11:36:28;;;;;;;210.05;48.80;;;;;;;;;;5009679;28;20040;-76
2022/12/10 11:39:01;;;;;;;120.57;30.35;;;;;;;;;;5025584;28;20084;-76
2022/12/10 11:41:27;;;;;;;133.18;31.23;;;;;;;;;;5010289;28;20531;-77
2022/12/10 11:43:59;;;;;;;114.88;27.58;;;;;;;;;;5010500;28;20041;-77
2022/12/10 11:46:33;;;;;;;136.85;34.22;;;;;;;;;;5007312;28;20055;-78
2022/12/10 11:49:02;;;;;;;110.57;28.60;;;;;;;;;;5009074;28;20033;-77
2022/12/10 11:51:37;;;;;;;139.82;37.60;;;;;;;;;;5027514;28;20037;-76
2022/12/10 11:54:10;;;;;;;131.15;32.55;;;;;;;;;;4992971;28;20103;-75
2022/12/10 11:56:50;;;;;;;91.57;26.48;;;;;;;;;;4993467;28;20068;-76
2022/12/10 11:59:24;;;;;;;101.95;25.85;;;;;;;;;;4992523;28;20553;-76
2022/12/10 12:01:53;;;;;;;92.70;24.73;;;;;;;;;;5007843;28;20102;-75
2022/12/10 12:04:22;;;;;;;86.00;24.63;;;;;;;;;;4992744;28;20045;-76
2022/12/10 12:07:01;;;;;;;126.70;34.42;;;;;;;;;;5009596;28;20025;-76
2022/12/10 12:09:36;;;;;;;124.75;34.50;;;;;;;;;;5024909;28;20876;-76
2022/12/10 12:12:02;;;;;;;92.00;24.70;;;;;;;;;;5026770;28;20060;-76
2022/12/10 12:14:34;;;;;;;74.07;21.80;;;;;;;;;;5027050;28;20425;-78
2022/12/10 12:17:18;;;;;;;78.25;24.00;;;;;;;;;;5026727;28;20041;-78
2022/12/10 12:19:46;;;;;;;78.40;21.77;;;;;;;;;;5006728;28;20069;-77
2022/12/10 12:22:21;;;;;;;87.22;24.98;;;;;;;;;;5026523;28;20057;-78
2022/12/10 12:24:48;;;;;;;84.72;25.42;;;;;;;;;;5014645;28;20128;-78
2022/12/10 12:27:22;;;;;;;52.67;19.35;;;;;;;;;;5009033;28;20148;-78
2022/12/10 12:30:15;;;;;;;68.97;19.55;;;;;;;;;;5005851;28;20100;-78
2022/12/10 12:33:01;;;;;;;60.20;20.05;;;;;;;;;;5021723;28;20044;-78
2022/12/10 12:35:51;;;;;;;65.65;20.33;;;;;;;;;;5007522;28;20096;-78
2022/12/10 12:38:26;;;;;;;103.65;28.25;;;;;;;;;;5015547;28;20034;-78
2022/12/10 12:40:53;;;;;;;64.90;21.98;;;;;;;;;;5012494;28;20047;-78
2022/12/10 12:43:21;;;;;;;98.45;27.83;;;;;;;;;;5025961;28;20598;-78
2022/12/10 12:45:47;;;;;;;68.72;20.60;;;;;;;;;;4990034;28;20048;-78
2022/12/10 12:48:27;;;;;;;57.60;19.98;;;;;;;;;;5026547;28;20045;-78
2022/12/10 12:50:53;;;;;;;59.67;20.50;;;;;;;;;;5030337;28;20044;-78
2022/12/10 12:53:19;;;;;;;62.88;20.65;;;;;;;;;;5033047;28;20444;-77
2022/12/10 12:55:47;;;;;;;53.33;18.52;;;;;;;;;;5015819;28;20045;-79
2022/12/10 12:58:16;;;;;;;58.05;19.83;;;;;;;;;;5016407;28;20884;-78
2022/12/10 13:00:43;;;;;;;59.67;18.33;;;;;;;;;;4997997;28;20041;-78
2022/12/10 13:03:18;;;;;;;70.65;22.13;;;;;;;;;;5012748;28;20049;-77
2022/12/10 13:05:44;;;;;;;66.97;21.05;;;;;;;;;;4980268;28;20034;-77
2022/12/10 13:08:20;;;;;;;71.28;21.65;;;;;;;;;;5014595;28;20043;-78
2022/12/10 13:11:05;;;;;;;61.85;20.30;;;;;;;;;;5010427;28;20132;-79
2022/12/10 13:13:32;;;;;;;84.38;25.35;;;;;;;;;;5011700;28;20210;-78
2022/12/10 13:16:17;;;;;;;63.33;21.15;;;;;;;;;;5013449;28;20076;-77
2022/12/10 13:18:44;;;;;;;61.20;19.77;;;;;;;;;;5032749;28;20033;-78
2022/12/10 13:21:16;;;;;;;64.60;18.48;;;;;;;;;;5032703;28;20056;-77
2022/12/10 13:23:47;;;;;;;83.47;25.15;;;;;;;;;;5012784;28;20045;-78
2022/12/10 13:26:13;;;;;;;;;;;;;;;;;;5032097;28;20036;-78
2022/12/10 13:28:40;;;;;;;73.68;23.27;;;;;;;;;;5009305;28;19913;-77
2022/12/10 13:31:15;;;;;;;43.63;14.82;;;;;;;;;;5013619;28;20029;-78
2022/12/10 13:34:01;;;;;;;49.60;17.52;;;;;;;;;;4981757;28;20052;-78
2022/12/10 13:36:28;;;;;;;48.95;18.15;;;;;;;;;;4998609;28;20045;-78
2022/12/10 13:39:03;;;;;;;56.55;20.05;;;;;;;;;;5014320;28;20087;-77
2022/12/10 13:44:54;;;;;;;57.40;20.48;;;;;;;;;;4955260;28;20070;-77
2022/12/10 13:47:46;;;;;;;74.03;24.67;;;;;;;;;;4998039;28;20369;-77
2022/12/10 13:50:32;;;;;;;56.53;18.88;;;;;;;;;;4993902;28;20042;-78
2022/12/10 13:53:08;;;;;;;62.05;20.73;;;;;;;;;;5013279;28;20406;-76
2022/12/10 13:55:49;;;;;;;60.67;20.75;;;;;;;;;;5012338;28;20146;-78
2022/12/10 13:58:30;;;;;;;77.40;23.17;;;;;;;;;;4997102;28;20041;-78
2022/12/10 14:00:56;;;;;;;49.83;18.55;;;;;;;;;;5013567;28;20048;-77
2022/12/10 14:03:28;;;;;;;46.08;17.88;;;;;;;;;;5028478;28;20603;-77
2022/12/10 14:06:04;;;;;;;57.00;20.73;;;;;;;;;;5030005;28;20053;-77
2022/12/10 14:08:31;;;;;;;61.08;21.27;;;;;;;;;;4993999;28;20041;-75
2022/12/10 14:11:01;;;;;;;51.03;19.90;;;;;;;;;;5012002;28;20471;-76
2022/12/10 14:13:45;;;;;;;56.30;20.38;;;;;;;;;;5026484;28;20540;-76
2022/12/10 14:16:13;;;;;;;79.93;26.85;;;;;;;;;;5011599;28;20510;-76
2022/12/10 14:18:41;;;;;;;49.55;18.60;;;;;;;;;;5029526;28;20037;-75
2022/12/10 14:21:07;;;;;;;66.38;21.02;;;;;;;;;;5011521;28;20080;-77
2022/12/10 14:23:37;;;;;;;89.57;28.63;;;;;;;;;;5012124;28;20040;-77
2022/12/10 14:26:09;;;;;;;56.45;20.25;;;;;;;;;;4992795;28;20128;-77
2022/12/10 14:28:34;;;;;;;;;;;;;;;;;;4995871;28;20037;-77
2022/12/10 14:31:00;;;;;;;46.17;18.55;;;;;;;;;;5011213;28;19920;-77
2022/12/10 14:33:26;;;;;;;45.30;18.45;;;;;;;;;;4998936;28;20715;-77
2022/12/10 14:35:52;;;;;;;45.95;17.17;;;;;;;;;;5006793;28;20644;-76